sensor_id;sensor_type;location;lat;lon;timestamp;temperature;humidity
24091;DHT22;12272;52.426;17.100;2024-03-08T00:04:17;-2.80;99.90
24091;DHT22;12272;52.426;17.100;2024-03-08T00:09:19;-2.80;99.90
24091;DHT22;12272;52.426;17.100;2024-03-08T00:14:24;-3.00;99.90
24091;DHT22;12272;52.426;17.100;2024-03-08T00:19:26;-3.90;99.90
24091;DHT22;12272;52.426;17.100;2024-03-08T00:24:29;-3.50;99.90
24091;DHT22;12272;52.426;17.100;2024-03-08T00:29:33;-3.20;99.90
24091;DHT22;12272;52.426;17.100;2024-03-08T00:34:36;-2.60;99.90
24091;DHT22;12272;52.426;17.100;2024-03-08T00:39:41;-2.30;99.90
24091;DHT22;12272;52.426;17.100;2024-03-08T00:44:44;-3.30;99.90
24091;DHT22;12272;52.426;17.100;2024-03-08T00:49:47;-2.90;99.90
24091;DHT22;12272;52.426;17.100;2024-03-08T00:54:50;-2.90;99.90
24091;DHT22;12272;52.426;17.100;2024-03-08T00:59:52;-3.60;99.90
24091;DHT22;12272;52.426;17.100;2024-03-08T01:04:55;-3.30;99.90
24091;DHT22;12272;52.426;17.100;2024-03-08T01:09:57;-3.30;99.90
24091;DHT22;12272;52.426;17.100;2024-03-08T01:20:04;-3.60;99.90
24091;DHT22;12272;52.426;17.100;2024-03-08T01:35:13;-3.40;99.90
24091;DHT22;12272;52.426;17.100;2024-03-08T01:40:16;-3.10;99.90
24091;DHT22;12272;52.426;17.100;2024-03-08T01:45:19;-3.60;99.90
24091;DHT22;12272;52.426;17.100;2024-03-08T01:50:21;-3.80;99.90
24091;DHT22;12272;52.426;17.100;2024-03-08T01:55:24;-4.20;99.90
24091;DHT22;12272;52.426;17.100;2024-03-08T02:00:26;-3.60;99.90
24091;DHT22;12272;52.426;17.100;2024-03-08T02:05:32;-4.10;99.90
24091;DHT22;12272;52.426;17.100;2024-03-08T02:10:34;-3.90;99.90
24091;DHT22;12272;52.426;17.100;2024-03-08T02:15:55;-3.80;99.90
24091;DHT22;12272;52.426;17.100;2024-03-08T02:20:59;-4.10;99.90
24091;DHT22;12272;52.426;17.100;2024-03-08T02:26:02;-3.90;99.90
24091;DHT22;12272;52.426;17.100;2024-03-08T02:31:07;-3.60;99.90
24091;DHT22;12272;52.426;17.100;2024-03-08T02:36:10;-3.60;99.90
24091;DHT22;12272;52.426;17.100;2024-03-08T02:41:15;-3.80;99.90
24091;DHT22;12272;52.426;17.100;2024-03-08T02:46:17;-4.00;99.90
24091;DHT22;12272;52.426;17.100;2024-03-08T02:51:19;-3.60;99.90
24091;DHT22;12272;52.426;17.100;2024-03-08T02:56:23;-3.70;99.90
24091;DHT22;12272;52.426;17.100;2024-03-08T03:01:25;-3.80;99.90
24091;DHT22;12272;52.426;17.100;2024-03-08T03:06:28;-3.50;99.90
24091;DHT22;12272;52.426;17.100;2024-03-08T03:11:31;-3.70;99.90
24091;DHT22;12272;52.426;17.100;2024-03-08T03:16:34;-3.60;99.90
24091;DHT22;12272;52.426;17.100;2024-03-08T03:21:37;-3.60;99.90
24091;DHT22;12272;52.426;17.100;2024-03-08T03:26:40;-4.60;99.90
24091;DHT22;12272;52.426;17.100;2024-03-08T03:31:43;-4.90;99.90
24091;DHT22;12272;52.426;17.100;2024-03-08T03:36:48;-3.80;99.90
24091;DHT22;12272;52.426;17.100;2024-03-08T03:41:51;-3.70;99.90
24091;DHT22;12272;52.426;17.100;2024-03-08T03:46:54;-4.10;99.90
24091;DHT22;12272;52.426;17.100;2024-03-08T03:51:57;-3.80;99.90
24091;DHT22;12272;52.426;17.100;2024-03-08T03:56:59;-3.80;99.90
24091;DHT22;12272;52.426;17.100;2024-03-08T04:02:03;-4.00;99.90
24091;DHT22;12272;52.426;17.100;2024-03-08T04:07:06;-4.10;99.90
24091;DHT22;12272;52.426;17.100;2024-03-08T04:12:09;-3.90;99.90
24091;DHT22;12272;52.426;17.100;2024-03-08T04:17:12;-3.90;99.90
24091;DHT22;12272;52.426;17.100;2024-03-08T04:22:14;-3.90;99.90
24091;DHT22;12272;52.426;17.100;2024-03-08T04:27:17;-3.80;99.90
24091;DHT22;12272;52.426;17.100;2024-03-08T04:32:19;-4.60;99.90
24091;DHT22;12272;52.426;17.100;2024-03-08T04:37:22;-4.20;99.90
24091;DHT22;12272;52.426;17.100;2024-03-08T04:42:25;-4.40;99.90
24091;DHT22;12272;52.426;17.100;2024-03-08T04:47:28;-4.50;99.90
24091;DHT22;12272;52.426;17.100;2024-03-08T04:52:31;-4.40;99.90
24091;DHT22;12272;52.426;17.100;2024-03-08T04:57:34;-3.80;99.90
24091;DHT22;12272;52.426;17.100;2024-03-08T05:02:37;-5.00;99.90
24091;DHT22;12272;52.426;17.100;2024-03-08T05:07:41;-4.10;99.90
24091;DHT22;12272;52.426;17.100;2024-03-08T05:12:44;-4.20;99.90
24091;DHT22;12272;52.426;17.100;2024-03-08T05:17:46;-4.30;99.90
24091;DHT22;12272;52.426;17.100;2024-03-08T05:22:49;-3.70;99.90
24091;DHT22;12272;52.426;17.100;2024-03-08T05:27:52;-4.30;99.90
24091;DHT22;12272;52.426;17.100;2024-03-08T05:32:54;-4.80;99.90
24091;DHT22;12272;52.426;17.100;2024-03-08T05:37:57;-3.80;99.90
24091;DHT22;12272;52.426;17.100;2024-03-08T05:43:00;-4.40;99.90
24091;DHT22;12272;52.426;17.100;2024-03-08T05:48:02;-4.00;99.90
24091;DHT22;12272;52.426;17.100;2024-03-08T05:53:05;-4.60;99.90
24091;DHT22;12272;52.426;17.100;2024-03-08T05:58:10;-4.40;99.90
24091;DHT22;12272;52.426;17.100;2024-03-08T06:03:13;-4.00;99.90
24091;DHT22;12272;52.426;17.100;2024-03-08T06:08:16;-4.10;99.90
24091;DHT22;12272;52.426;17.100;2024-03-08T06:13:19;-4.20;99.90
24091;DHT22;12272;52.426;17.100;2024-03-08T06:18:21;-4.40;99.90
24091;DHT22;12272;52.426;17.100;2024-03-08T06:23:24;-4.00;99.90
24091;DHT22;12272;52.426;17.100;2024-03-08T06:28:27;-3.70;99.90
24091;DHT22;12272;52.426;17.100;2024-03-08T06:33:31;-3.50;99.90
24091;DHT22;12272;52.426;17.100;2024-03-08T06:38:35;-3.30;99.90
24091;DHT22;12272;52.426;17.100;2024-03-08T06:43:37;-2.10;99.90
24091;DHT22;12272;52.426;17.100;2024-03-08T06:48:40;-1.90;99.90
24091;DHT22;12272;52.426;17.100;2024-03-08T06:53:45;-2.20;99.90
24091;DHT22;12272;52.426;17.100;2024-03-08T06:58:48;-2.10;99.90
24091;DHT22;12272;52.426;17.100;2024-03-08T07:03:51;-1.70;99.90
24091;DHT22;12272;52.426;17.100;2024-03-08T07:08:55;-1.40;99.90
24091;DHT22;12272;52.426;17.100;2024-03-08T07:14:00;-0.50;99.90
24091;DHT22;12272;52.426;17.100;2024-03-08T07:19:05;-1.10;99.90
24091;DHT22;12272;52.426;17.100;2024-03-08T07:29:30;-0.90;99.90
24091;DHT22;12272;52.426;17.100;2024-03-08T07:34:32;-0.60;99.90
24091;DHT22;12272;52.426;17.100;2024-03-08T07:39:36;-0.30;99.90
24091;DHT22;12272;52.426;17.100;2024-03-08T07:44:38;-0.70;99.90
24091;DHT22;12272;52.426;17.100;2024-03-08T07:49:41;-0.40;99.90
24091;DHT22;12272;52.426;17.100;2024-03-08T07:54:44;0.30;99.90
24091;DHT22;12272;52.426;17.100;2024-03-08T07:59:46;0.50;99.90
24091;DHT22;12272;52.426;17.100;2024-03-08T08:04:49;0.70;99.90
24091;DHT22;12272;52.426;17.100;2024-03-08T08:09:53;0.80;99.90
24091;DHT22;12272;52.426;17.100;2024-03-08T08:14:55;0.90;99.90
24091;DHT22;12272;52.426;17.100;2024-03-08T08:19:58;1.50;99.90
24091;DHT22;12272;52.426;17.100;2024-03-08T08:25:02;0.90;99.90
24091;DHT22;12272;52.426;17.100;2024-03-08T08:30:05;1.70;99.90
24091;DHT22;12272;52.426;17.100;2024-03-08T08:35:10;2.50;99.90
24091;DHT22;12272;52.426;17.100;2024-03-08T08:40:14;2.70;99.90
24091;DHT22;12272;52.426;17.100;2024-03-08T08:45:18;2.80;99.90
24091;DHT22;12272;52.426;17.100;2024-03-08T08:50:27;2.90;99.90
24091;DHT22;12272;52.426;17.100;2024-03-08T08:55:31;3.20;99.90
24091;DHT22;12272;52.426;17.100;2024-03-08T09:00:33;3.70;99.90
24091;DHT22;12272;52.426;17.100;2024-03-08T09:05:36;4.00;99.90
24091;DHT22;12272;52.426;17.100;2024-03-08T09:10:41;4.20;99.90
24091;DHT22;12272;52.426;17.100;2024-03-08T09:15:44;4.50;99.90
24091;DHT22;12272;52.426;17.100;2024-03-08T09:20:46;4.90;99.90
24091;DHT22;12272;52.426;17.100;2024-03-08T09:30:52;5.20;99.90
24091;DHT22;12272;52.426;17.100;2024-03-08T09:36:01;5.20;99.90
24091;DHT22;12272;52.426;17.100;2024-03-08T09:41:06;5.30;99.90
24091;DHT22;12272;52.426;17.100;2024-03-08T09:46:09;5.50;99.90
24091;DHT22;12272;52.426;17.100;2024-03-08T09:51:13;5.80;99.90
24091;DHT22;12272;52.426;17.100;2024-03-08T09:56:20;6.20;99.90
24091;DHT22;12272;52.426;17.100;2024-03-08T10:01:23;6.00;99.90
24091;DHT22;12272;52.426;17.100;2024-03-08T10:06:28;6.70;99.90
24091;DHT22;12272;52.426;17.100;2024-03-08T10:11:30;6.40;99.90
24091;DHT22;12272;52.426;17.100;2024-03-08T10:21:49;7.20;99.90
24091;DHT22;12272;52.426;17.100;2024-03-08T10:26:53;7.10;99.90
24091;DHT22;12272;52.426;17.100;2024-03-08T10:31:56;7.30;99.90
24091;DHT22;12272;52.426;17.100;2024-03-08T10:37:05;7.30;99.90
24091;DHT22;12272;52.426;17.100;2024-03-08T10:42:12;7.30;99.90
24091;DHT22;12272;52.426;17.100;2024-03-08T10:47:26;7.00;99.90
24091;DHT22;12272;52.426;17.100;2024-03-08T10:52:32;6.00;99.90
24091;DHT22;12272;52.426;17.100;2024-03-08T10:57:40;7.30;99.90
24091;DHT22;12272;52.426;17.100;2024-03-08T11:02:44;7.50;99.90
24091;DHT22;12272;52.426;17.100;2024-03-08T11:07:47;7.40;99.90
24091;DHT22;12272;52.426;17.100;2024-03-08T11:12:52;6.90;99.90
24091;DHT22;12272;52.426;17.100;2024-03-08T11:17:58;7.30;99.90
24091;DHT22;12272;52.426;17.100;2024-03-08T11:23:04;7.20;99.90
24091;DHT22;12272;52.426;17.100;2024-03-08T11:28:23;7.20;99.90
24091;DHT22;12272;52.426;17.100;2024-03-08T11:33:34;7.20;99.90
24091;DHT22;12272;52.426;17.100;2024-03-08T11:38:41;7.20;99.90
24091;DHT22;12272;52.426;17.100;2024-03-08T11:43:44;7.10;99.90
24091;DHT22;12272;52.426;17.100;2024-03-08T11:48:47;6.90;99.90
24091;DHT22;12272;52.426;17.100;2024-03-08T11:53:50;7.10;99.90
24091;DHT22;12272;52.426;17.100;2024-03-08T11:58:55;6.90;99.90
24091;DHT22;12272;52.426;17.100;2024-03-08T12:04:01;7.00;99.90
24091;DHT22;12272;52.426;17.100;2024-03-08T12:09:04;6.90;99.90
24091;DHT22;12272;52.426;17.100;2024-03-08T12:14:07;6.70;99.90
24091;DHT22;12272;52.426;17.100;2024-03-08T12:19:10;7.10;99.90
24091;DHT22;12272;52.426;17.100;2024-03-08T12:24:15;7.00;99.90
24091;DHT22;12272;52.426;17.100;2024-03-08T12:29:27;7.20;99.90
24091;DHT22;12272;52.426;17.100;2024-03-08T12:34:30;7.40;99.90
24091;DHT22;12272;52.426;17.100;2024-03-08T12:39:35;7.40;99.90
24091;DHT22;12272;52.426;17.100;2024-03-08T12:44:37;7.40;99.90
24091;DHT22;12272;52.426;17.100;2024-03-08T12:49:45;7.40;99.90
24091;DHT22;12272;52.426;17.100;2024-03-08T12:54:48;7.30;99.90
24091;DHT22;12272;52.426;17.100;2024-03-08T12:59:51;7.40;99.90
24091;DHT22;12272;52.426;17.100;2024-03-08T13:04:56;7.30;99.90
24091;DHT22;12272;52.426;17.100;2024-03-08T13:10:00;7.40;99.90
24091;DHT22;12272;52.426;17.100;2024-03-08T13:15:02;7.40;99.90
24091;DHT22;12272;52.426;17.100;2024-03-08T13:20:08;7.40;99.90
24091;DHT22;12272;52.426;17.100;2024-03-08T13:25:11;7.50;99.90
24091;DHT22;12272;52.426;17.100;2024-03-08T13:30:17;7.60;99.90
24091;DHT22;12272;52.426;17.100;2024-03-08T13:35:20;7.70;99.90
24091;DHT22;12272;52.426;17.100;2024-03-08T13:40:32;7.80;99.90
24091;DHT22;12272;52.426;17.100;2024-03-08T13:45:36;7.80;99.90
24091;DHT22;12272;52.426;17.100;2024-03-08T13:50:43;7.80;99.90
24091;DHT22;12272;52.426;17.100;2024-03-08T13:55:45;7.60;99.90
24091;DHT22;12272;52.426;17.100;2024-03-08T14:00:48;7.70;99.90
24091;DHT22;12272;52.426;17.100;2024-03-08T14:05:51;7.90;99.90
24091;DHT22;12272;52.426;17.100;2024-03-08T14:10:53;8.20;99.90
24091;DHT22;12272;52.426;17.100;2024-03-08T14:15:56;8.20;99.90
24091;DHT22;12272;52.426;17.100;2024-03-08T14:20:59;8.30;99.90
24091;DHT22;12272;52.426;17.100;2024-03-08T14:26:02;8.50;99.90
24091;DHT22;12272;52.426;17.100;2024-03-08T14:31:05;8.30;99.90
24091;DHT22;12272;52.426;17.100;2024-03-08T14:36:13;8.30;99.90
24091;DHT22;12272;52.426;17.100;2024-03-08T14:41:16;8.80;99.90
24091;DHT22;12272;52.426;17.100;2024-03-08T14:46:19;8.30;99.90
24091;DHT22;12272;52.426;17.100;2024-03-08T14:51:23;7.90;99.90
24091;DHT22;12272;52.426;17.100;2024-03-08T14:56:28;7.60;99.90
24091;DHT22;12272;52.426;17.100;2024-03-08T15:01:31;7.70;99.90
24091;DHT22;12272;52.426;17.100;2024-03-08T15:06:36;7.80;99.90
24091;DHT22;12272;52.426;17.100;2024-03-08T15:11:39;8.20;99.90
24091;DHT22;12272;52.426;17.100;2024-03-08T15:16:42;8.10;99.90
24091;DHT22;12272;52.426;17.100;2024-03-08T15:21:46;8.20;99.90
24091;DHT22;12272;52.426;17.100;2024-03-08T15:26:50;8.20;99.90
24091;DHT22;12272;52.426;17.100;2024-03-08T15:31:54;8.20;99.90
24091;DHT22;12272;52.426;17.100;2024-03-08T15:36:57;8.10;99.90
24091;DHT22;12272;52.426;17.100;2024-03-08T15:42:04;7.90;99.90
24091;DHT22;12272;52.426;17.100;2024-03-08T15:47:07;7.80;99.90
24091;DHT22;12272;52.426;17.100;2024-03-08T15:52:13;7.90;99.90
24091;DHT22;12272;52.426;17.100;2024-03-08T15:57:15;7.70;99.90
24091;DHT22;12272;52.426;17.100;2024-03-08T16:02:20;7.50;99.90
24091;DHT22;12272;52.426;17.100;2024-03-08T16:07:25;7.20;99.90
24091;DHT22;12272;52.426;17.100;2024-03-08T16:17:32;6.20;99.90
24091;DHT22;12272;52.426;17.100;2024-03-08T16:22:35;6.50;99.90
24091;DHT22;12272;52.426;17.100;2024-03-08T16:27:41;6.40;99.90
24091;DHT22;12272;52.426;17.100;2024-03-08T16:32:47;6.10;99.90
24091;DHT22;12272;52.426;17.100;2024-03-08T16:37:55;5.60;99.90
24091;DHT22;12272;52.426;17.100;2024-03-08T16:42:59;5.50;99.90
24091;DHT22;12272;52.426;17.100;2024-03-08T16:48:01;5.00;99.90
24091;DHT22;12272;52.426;17.100;2024-03-08T16:53:06;5.00;99.90
24091;DHT22;12272;52.426;17.100;2024-03-08T16:58:08;4.70;99.90
24091;DHT22;12272;52.426;17.100;2024-03-08T17:03:17;4.40;99.90
24091;DHT22;12272;52.426;17.100;2024-03-08T17:08:19;3.90;99.90
24091;DHT22;12272;52.426;17.100;2024-03-08T17:13:21;3.10;99.90
24091;DHT22;12272;52.426;17.100;2024-03-08T17:18:24;2.70;99.90
24091;DHT22;12272;52.426;17.100;2024-03-08T17:23:28;2.30;99.90
24091;DHT22;12272;52.426;17.100;2024-03-08T17:28:31;1.90;99.90
24091;DHT22;12272;52.426;17.100;2024-03-08T17:33:33;1.70;99.90
24091;DHT22;12272;52.426;17.100;2024-03-08T17:38:38;1.60;99.90
24091;DHT22;12272;52.426;17.100;2024-03-08T17:43:51;1.50;99.90
24091;DHT22;12272;52.426;17.100;2024-03-08T17:48:54;1.30;99.90
24091;DHT22;12272;52.426;17.100;2024-03-08T17:53:56;1.10;99.90
24091;DHT22;12272;52.426;17.100;2024-03-08T17:59:00;1.20;99.90
24091;DHT22;12272;52.426;17.100;2024-03-08T18:04:07;0.90;99.90
24091;DHT22;12272;52.426;17.100;2024-03-08T18:09:10;0.50;99.90
24091;DHT22;12272;52.426;17.100;2024-03-08T18:14:12;0.40;99.90
24091;DHT22;12272;52.426;17.100;2024-03-08T18:19:16;-0.70;99.90
24091;DHT22;12272;52.426;17.100;2024-03-08T18:24:22;0.00;99.90
24091;DHT22;12272;52.426;17.100;2024-03-08T18:29:24;-0.20;99.90
24091;DHT22;12272;52.426;17.100;2024-03-08T18:34:26;-0.30;99.90
24091;DHT22;12272;52.426;17.100;2024-03-08T18:39:29;-0.30;99.90
24091;DHT22;12272;52.426;17.100;2024-03-08T18:44:32;-0.30;99.90
24091;DHT22;12272;52.426;17.100;2024-03-08T18:49:34;-0.50;99.90
24091;DHT22;12272;52.426;17.100;2024-03-08T18:54:37;-0.60;99.90
24091;DHT22;12272;52.426;17.100;2024-03-08T18:59:40;-0.70;99.90
24091;DHT22;12272;52.426;17.100;2024-03-08T19:04:43;-0.80;99.90
24091;DHT22;12272;52.426;17.100;2024-03-08T19:09:46;-0.80;99.90
24091;DHT22;12272;52.426;17.100;2024-03-08T19:14:48;-0.70;99.90
24091;DHT22;12272;52.426;17.100;2024-03-08T19:19:53;-0.60;99.90
24091;DHT22;12272;52.426;17.100;2024-03-08T19:24:55;-0.70;99.90
24091;DHT22;12272;52.426;17.100;2024-03-08T19:29:58;-0.60;99.90
24091;DHT22;12272;52.426;17.100;2024-03-08T19:35:01;-1.00;99.90
24091;DHT22;12272;52.426;17.100;2024-03-08T19:40:15;-1.00;99.90
24091;DHT22;12272;52.426;17.100;2024-03-08T19:45:25;-1.20;99.90
24091;DHT22;12272;52.426;17.100;2024-03-08T19:50:29;-1.20;99.90
24091;DHT22;12272;52.426;17.100;2024-03-08T19:55:36;-1.20;99.90
24091;DHT22;12272;52.426;17.100;2024-03-08T20:00:40;-1.20;99.90
24091;DHT22;12272;52.426;17.100;2024-03-08T20:05:43;-1.30;99.90
24091;DHT22;12272;52.426;17.100;2024-03-08T20:10:46;-1.50;99.90
24091;DHT22;12272;52.426;17.100;2024-03-08T20:15:49;-1.60;99.90
24091;DHT22;12272;52.426;17.100;2024-03-08T20:20:56;-1.60;99.90
24091;DHT22;12272;52.426;17.100;2024-03-08T20:25:59;-1.60;99.90
24091;DHT22;12272;52.426;17.100;2024-03-08T20:31:04;-1.70;99.90
24091;DHT22;12272;52.426;17.100;2024-03-08T20:36:07;-1.80;99.90
24091;DHT22;12272;52.426;17.100;2024-03-08T20:41:11;-1.60;99.90
24091;DHT22;12272;52.426;17.100;2024-03-08T20:46:14;-1.30;99.90
24091;DHT22;12272;52.426;17.100;2024-03-08T20:51:19;-1.20;99.90
24091;DHT22;12272;52.426;17.100;2024-03-08T20:56:22;-1.30;99.90
24091;DHT22;12272;52.426;17.100;2024-03-08T21:01:24;-1.30;99.90
24091;DHT22;12272;52.426;17.100;2024-03-08T21:06:33;-1.10;99.90
24091;DHT22;12272;52.426;17.100;2024-03-08T21:11:37;-1.00;99.90
24091;DHT22;12272;52.426;17.100;2024-03-08T21:16:39;-1.10;99.90
24091;DHT22;12272;52.426;17.100;2024-03-08T21:21:44;-1.10;99.90
24091;DHT22;12272;52.426;17.100;2024-03-08T21:26:52;-1.20;99.90
24091;DHT22;12272;52.426;17.100;2024-03-08T21:31:55;-1.10;99.90
24091;DHT22;12272;52.426;17.100;2024-03-08T21:36:58;-1.10;99.90
24091;DHT22;12272;52.426;17.100;2024-03-08T21:42:03;-1.00;99.90
24091;DHT22;12272;52.426;17.100;2024-03-08T21:47:05;-1.10;99.90
24091;DHT22;12272;52.426;17.100;2024-03-08T21:52:10;-1.20;99.90
24091;DHT22;12272;52.426;17.100;2024-03-08T21:57:15;-1.20;99.90
24091;DHT22;12272;52.426;17.100;2024-03-08T22:02:21;-1.00;99.90
24091;DHT22;12272;52.426;17.100;2024-03-08T22:07:23;-0.80;99.90
24091;DHT22;12272;52.426;17.100;2024-03-08T22:12:26;-0.80;99.90
24091;DHT22;12272;52.426;17.100;2024-03-08T22:17:32;-0.70;99.90
24091;DHT22;12272;52.426;17.100;2024-03-08T22:22:35;-0.60;99.90
24091;DHT22;12272;52.426;17.100;2024-03-08T22:27:39;-0.70;99.90
24091;DHT22;12272;52.426;17.100;2024-03-08T22:32:48;-0.60;99.90
24091;DHT22;12272;52.426;17.100;2024-03-08T22:37:50;-0.60;99.90
24091;DHT22;12272;52.426;17.100;2024-03-08T22:42:53;-0.60;99.90
24091;DHT22;12272;52.426;17.100;2024-03-08T22:47:56;-0.50;99.90
24091;DHT22;12272;52.426;17.100;2024-03-08T22:52:59;-0.50;99.90
24091;DHT22;12272;52.426;17.100;2024-03-08T22:58:02;-0.80;99.90
24091;DHT22;12272;52.426;17.100;2024-03-08T23:03:05;-1.00;99.90
24091;DHT22;12272;52.426;17.100;2024-03-08T23:08:12;-1.00;99.90
24091;DHT22;12272;52.426;17.100;2024-03-08T23:13:15;-1.30;99.90
24091;DHT22;12272;52.426;17.100;2024-03-08T23:18:19;-1.60;99.90
24091;DHT22;12272;52.426;17.100;2024-03-08T23:23:22;-1.80;99.90
24091;DHT22;12272;52.426;17.100;2024-03-08T23:28:25;-1.90;99.90
24091;DHT22;12272;52.426;17.100;2024-03-08T23:33:30;-2.00;99.90
24091;DHT22;12272;52.426;17.100;2024-03-08T23:38:33;-2.00;99.90
24091;DHT22;12272;52.426;17.100;2024-03-08T23:43:36;-2.00;99.90
24091;DHT22;12272;52.426;17.100;2024-03-08T23:48:40;-2.40;99.90
24091;DHT22;12272;52.426;17.100;2024-03-08T23:53:43;-2.10;99.90
24091;DHT22;12272;52.426;17.100;2024-03-08T23:58:46;-2.20;99.90
